createdAt,value
2023-05-03T00:01:30.478Z,100107.13
2023-05-03T00:03:58.157Z,100105.44
2023-05-03T00:06:26.537Z,100106.31
2023-05-03T00:08:54.174Z,100106.34
2023-05-03T00:11:22.102Z,100108.09
2023-05-03T00:13:50.979Z,100104.81
2023-05-03T00:16:18.643Z,100105.53
2023-05-03T00:18:47.731Z,100099.47
2023-05-03T00:21:16.909Z,100096.03
2023-05-03T00:23:44.555Z,100104.75
2023-05-03T00:26:12.176Z,100096.09
2023-05-03T00:28:39.878Z,100098.63
2023-05-03T00:31:09.760Z,100095.34
2023-05-03T00:33:39.797Z,100089.97
2023-05-03T00:36:11.030Z,100083.91
2023-05-03T00:38:38.802Z,100078.72
2023-05-03T00:41:06.792Z,100079.66
2023-05-03T00:43:35.354Z,100076.16
2023-05-03T00:46:13.011Z,100073.44
2023-05-03T00:48:46.233Z,100066.66
2023-05-03T00:51:14.376Z,100071.91
2023-05-03T00:53:42.552Z,100071.16
2023-05-03T00:56:11.180Z,100065.06
2023-05-03T00:58:40.499Z,100068.50
2023-05-03T01:01:09.110Z,100065.00
2023-05-03T01:03:38.050Z,100062.47
2023-05-03T01:06:11.689Z,100064.13
2023-05-03T01:08:43.982Z,100066.84
2023-05-03T01:11:15.279Z,100060.66
2023-05-03T01:13:48.493Z,100066.06
2023-05-03T01:16:20.629Z,100056.50
2023-05-03T01:18:50.012Z,100052.13
2023-05-03T01:21:19.507Z,100055.72
2023-05-03T01:23:53.022Z,100056.47
2023-05-03T01:26:22.461Z,100052.09
2023-05-03T01:28:50.105Z,100051.34
2023-05-03T01:31:23.608Z,100047.91
2023-05-03T01:34:00.954Z,100048.72
2023-05-03T01:36:33.014Z,100046.16
2023-05-03T01:39:04.487Z,100045.25
2023-05-03T01:41:34.495Z,100044.47
2023-05-03T01:44:02.568Z,100043.56
2023-05-03T01:46:30.281Z,100036.59
2023-05-03T01:48:57.847Z,100039.22
2023-05-03T01:51:25.769Z,100041.94
2023-05-03T01:53:53.346Z,100045.34
2023-05-03T01:56:21.744Z,100045.47
2023-05-03T01:58:50.652Z,100049.78
2023-05-03T02:01:18.272Z,100055.81
2023-05-03T02:03:45.867Z,100050.59
2023-05-03T02:06:13.511Z,100052.47
2023-05-03T02:08:41.177Z,100056.75
2023-05-03T02:11:08.775Z,100063.84
2023-05-03T02:13:37.413Z,100060.31
2023-05-03T02:16:06.695Z,100062.06
2023-05-03T02:18:35.592Z,100068.13
2023-05-03T02:21:03.195Z,100066.50
2023-05-03T02:23:30.749Z,100065.63
2023-05-03T02:25:59.004Z,100071.75
2023-05-03T02:28:26.532Z,100064.81
2023-05-03T02:30:54.195Z,100069.28
2023-05-03T02:33:23.290Z,100068.38
2023-05-03T02:35:50.933Z,100065.75
2023-05-03T02:38:18.602Z,100068.41
2023-05-03T02:40:46.205Z,100073.59
2023-05-03T02:43:13.814Z,100072.69
2023-05-03T02:45:41.339Z,100074.47
2023-05-03T02:48:09.712Z,100071.00
2023-05-03T02:50:39.578Z,100064.03
2023-05-03T02:53:07.161Z,100065.81
2023-05-03T02:55:34.915Z,100070.19
2023-05-03T02:58:02.576Z,100062.34
2023-05-03T03:00:30.261Z,100051.97
2023-05-03T03:02:57.973Z,100064.13
2023-05-03T03:05:25.735Z,100052.84
2023-05-03T03:07:54.935Z,100056.31
2023-05-03T03:10:22.483Z,100052.81
2023-05-03T03:12:50.118Z,100053.69
2023-05-03T03:15:17.915Z,100053.75
2023-05-03T03:17:45.487Z,100039.75
2023-05-03T03:20:13.430Z,100054.66
2023-05-03T03:22:41.143Z,100042.41
2023-05-03T03:25:11.065Z,100050.28
2023-05-03T03:27:39.808Z,100047.66
2023-05-03T03:30:09.446Z,100038.06
2023-05-03T03:32:37.182Z,100039.91
2023-05-03T03:35:05.204Z,100040.72
2023-05-03T03:37:32.776Z,100037.19
2023-05-03T03:40:00.442Z,100031.16
2023-05-03T03:42:29.440Z,100040.75
2023-05-03T03:44:57.054Z,100041.69
2023-05-03T03:47:24.841Z,100039.03
2023-05-03T03:49:52.523Z,100042.53
2023-05-03T03:52:20.193Z,100042.56
2023-05-03T03:54:47.726Z,100050.34
2023-05-03T03:57:15.286Z,100056.41
2023-05-03T03:59:44.298Z,100052.88
2023-05-03T04:02:12.106Z,100052.81
2023-05-03T04:04:39.871Z,100059.06
2023-05-03T04:07:07.452Z,100059.00
2023-05-03T04:09:35.047Z,100054.66
2023-05-03T04:12:03.358Z,100058.19
2023-05-03T04:14:31.047Z,100059.88
2023-05-03T04:16:59.996Z,100051.97
2023-05-03T04:19:28.491Z,100053.72
2023-05-03T04:21:56.116Z,100068.59
2023-05-03T04:24:23.950Z,100067.59
2023-05-03T04:26:52.384Z,100061.44
2023-05-03T04:29:20.439Z,100064.88
2023-05-03T04:31:48.001Z,100064.06
2023-05-03T04:34:16.964Z,100067.56
2023-05-03T04:36:45.576Z,100068.44
2023-05-03T04:39:13.392Z,100074.44
2023-05-03T04:41:41.848Z,100063.97
2023-05-03T04:44:09.524Z,100065.69
2023-05-03T04:46:37.451Z,100069.16
2023-05-03T04:49:05.422Z,100070.00
2023-05-03T04:51:34.355Z,100075.22
2023-05-03T04:54:01.967Z,100063.00
2023-05-03T04:56:29.646Z,100066.41
2023-05-03T04:58:57.270Z,100066.44
2023-05-03T05:01:27.989Z,100072.44
2023-05-03T05:03:55.828Z,100068.03
2023-05-03T05:06:23.634Z,100065.47
2023-05-03T05:08:52.942Z,100064.41
2023-05-03T05:11:20.905Z,100063.66
2023-05-03T05:13:48.493Z,100072.22
2023-05-03T05:16:17.535Z,100072.19
2023-05-03T05:18:45.665Z,100066.97
2023-05-03T05:21:16.193Z,100066.06
2023-05-03T05:23:43.869Z,100072.19
2023-05-03T05:26:12.805Z,100070.31
2023-05-03T05:28:40.542Z,100073.84
2023-05-03T05:31:08.317Z,100078.91
2023-05-03T05:33:36.025Z,100078.88
2023-05-03T05:36:03.972Z,100085.91
2023-05-03T05:38:31.913Z,100075.38
2023-05-03T05:40:59.557Z,100076.25
2023-05-03T05:43:29.216Z,100082.28
2023-05-03T05:45:56.780Z,100077.13
2023-05-03T05:48:24.351Z,100079.75
2023-05-03T05:50:51.927Z,100070.97
2023-05-03T05:53:19.497Z,100078.72
2023-05-03T05:55:47.066Z,100072.59
2023-05-03T05:58:14.760Z,100072.50
2023-05-03T06:00:43.682Z,100062.91
2023-05-03T06:03:11.257Z,100066.13
2023-05-03T06:05:39.580Z,100074.19
2023-05-03T06:08:07.329Z,100066.09
2023-05-03T06:10:34.917Z,100081.09
2023-05-03T06:13:03.742Z,100086.97
2023-05-03T06:15:31.572Z,100098.16
2023-05-03T06:18:00.803Z,100084.88
2023-05-03T06:20:28.559Z,100090.88
2023-05-03T06:22:56.197Z,100082.09
2023-05-03T06:25:23.824Z,100096.72
2023-05-03T06:27:51.468Z,100092.78
2023-05-03T06:30:19.280Z,100104.91
2023-05-03T06:32:48.670Z,100107.56
2023-05-03T06:35:19.265Z,100103.91
2023-05-03T06:37:46.928Z,100109.00
2023-05-03T06:40:15.643Z,100098.66
2023-05-03T06:42:43.223Z,100101.00
2023-05-03T06:45:11.584Z,100095.50
2023-05-03T06:47:40.224Z,100087.28
2023-05-03T06:50:08.811Z,100090.84
2023-05-03T06:52:37.705Z,100089.88
2023-05-03T06:55:06.067Z,100089.88
2023-05-03T06:57:33.647Z,100094.13
2023-05-03T07:00:01.409Z,100097.94
2023-05-03T07:02:29.275Z,100094.81
2023-05-03T07:04:56.900Z,100087.81
2023-05-03T07:07:24.582Z,100094.97
2023-05-03T07:09:53.735Z,100091.84
2023-05-03T07:12:21.301Z,100088.75
2023-05-03T07:14:48.984Z,100087.63
2023-05-03T07:17:16.572Z,100089.81
2023-05-03T07:19:44.110Z,100096.38
2023-05-03T07:22:12.570Z,100098.88
2023-05-03T07:24:40.197Z,100095.81
2023-05-03T07:27:09.366Z,100092.19
2023-05-03T07:29:37.232Z,100092.72
2023-05-03T07:32:05.465Z,100091.56
2023-05-03T07:34:33.710Z,100078.75
2023-05-03T07:37:03.121Z,100084.06
2023-05-03T07:39:31.042Z,100077.22
2023-05-03T07:41:58.598Z,100071.94
2023-05-03T07:44:27.413Z,100079.75
2023-05-03T07:46:54.994Z,100077.06
2023-05-03T07:49:22.545Z,100074.81
2023-05-03T07:51:50.253Z,100076.56
2023-05-03T07:54:18.448Z,100075.25
2023-05-03T07:56:46.349Z,100069.59
2023-05-03T07:59:14.631Z,100071.81
2023-05-03T08:01:44.155Z,100067.94
2023-05-03T08:04:12.077Z,100063.06
2023-05-03T08:06:40.064Z,100065.13
2023-05-03T08:09:08.762Z,100062.13
2023-05-03T08:11:36.746Z,100066.66
2023-05-03T08:14:04.360Z,100071.31
2023-05-03T08:16:31.984Z,100072.16
2023-05-03T08:19:01.042Z,100076.91
2023-05-03T08:21:28.676Z,100072.63
2023-05-03T08:23:56.340Z,100068.75
2023-05-03T08:26:24.120Z,100053.41
2023-05-03T08:28:51.908Z,100057.69
2023-05-03T08:31:19.621Z,100064.53
2023-05-03T08:33:47.219Z,100060.59
2023-05-03T08:36:16.162Z,100063.06
2023-05-03T08:38:43.764Z,100068.50
2023-05-03T08:41:20.057Z,100066.72
2023-05-03T08:43:49.778Z,100063.00
2023-05-03T08:46:17.477Z,100069.97
2023-05-03T08:48:46.180Z,100069.88
2023-05-03T08:51:16.535Z,100064.31
2023-05-03T08:53:44.170Z,100057.78
2023-05-03T08:56:13.396Z,100058.91
2023-05-03T08:58:41.044Z,100056.72
2023-05-03T09:01:10.161Z,100074.06
2023-05-03T09:03:38.023Z,100072.19
2023-05-03T09:06:21.957Z,100063.75
2023-05-03T09:08:50.060Z,100056.56
2023-05-03T09:11:24.445Z,100063.94
2023-05-03T09:13:52.962Z,100061.13
2023-05-03T09:16:24.762Z,100060.69
2023-05-03T09:18:59.985Z,100069.44
2023-05-03T09:21:29.340Z,100064.63
2023-05-03T09:23:56.899Z,100059.59
2023-05-03T09:26:32.213Z,100058.88
2023-05-03T09:29:01.388Z,100050.59
2023-05-03T09:31:29.803Z,100056.44
2023-05-03T09:33:57.409Z,100058.94
2023-05-03T09:36:25.642Z,100041.84
2023-05-03T09:38:55.919Z,100045.81
2023-05-03T09:41:30.209Z,100043.44
2023-05-03T09:44:02.821Z,100041.47
2023-05-03T09:46:31.090Z,100038.28
2023-05-03T09:48:58.914Z,100032.81
2023-05-03T09:51:27.324Z,100027.28
2023-05-03T09:53:58.824Z,100034.53
2023-05-03T09:56:27.381Z,100026.28
2023-05-03T09:58:55.531Z,100032.75
2023-05-03T10:01:25.574Z,100031.34
2023-05-03T10:03:54.334Z,100021.22
2023-05-03T10:06:27.939Z,100027.78
2023-05-03T10:09:01.925Z,100023.94
2023-05-03T10:11:29.814Z,100030.84
2023-05-03T10:13:57.850Z,100031.31
2023-05-03T10:16:28.977Z,100032.00
2023-05-03T10:19:02.368Z,100041.81
2023-05-03T10:21:35.402Z,100037.47
2023-05-03T10:24:15.730Z,100044.97
2023-05-03T10:26:43.848Z,100030.16
2023-05-03T10:29:52.055Z,100029.75
2023-05-03T10:32:33.330Z,100033.78
2023-05-03T10:35:03.652Z,100028.34
2023-05-03T10:37:33.478Z,100022.06
2023-05-03T10:40:09.943Z,100016.00
2023-05-03T10:42:38.392Z,100009.78
2023-05-03T10:45:09.027Z,100014.09
2023-05-03T10:47:36.803Z,100006.03
2023-05-03T10:50:26.959Z,100012.38
2023-05-03T10:52:54.693Z,100012.72
2023-05-03T10:55:25.761Z,100007.34
2023-05-03T10:57:56.342Z,100004.63
2023-05-03T11:00:26.186Z,100013.44
2023-05-03T11:03:20.033Z,100011.59
2023-05-03T11:05:50.952Z,100002.81
2023-05-03T11:08:20.356Z,99994.56
2023-05-03T11:10:51.271Z,99999.22
2023-05-03T11:13:19.044Z,99988.84
2023-05-03T11:15:48.423Z,99984.31
2023-05-03T11:18:16.374Z,99987.69
2023-05-03T11:20:43.956Z,99982.59
2023-05-03T11:23:13.185Z,99985.31
2023-05-03T11:25:40.840Z,99972.63
2023-05-03T11:28:09.795Z,99976.34
2023-05-03T11:30:38.251Z,99978.53
2023-05-03T11:33:05.921Z,99966.94
2023-05-03T11:35:33.566Z,99966.34
2023-05-03T11:38:01.718Z,99963.34
2023-05-03T11:40:29.287Z,99961.59
2023-05-03T11:42:58.606Z,99964.56
2023-05-03T11:45:30.667Z,99943.22
2023-05-03T11:47:59.205Z,99944.59
2023-05-03T11:50:45.620Z,99952.47
2023-05-03T11:53:13.375Z,99946.53
2023-05-03T11:55:42.254Z,99943.19
2023-05-03T11:58:10.737Z,99942.63
2023-05-03T12:00:40.926Z,99939.44
2023-05-03T12:03:10.679Z,99931.38
2023-05-03T12:05:39.395Z,99934.63
2023-05-03T12:08:07.636Z,99930.00
2023-05-03T12:10:37.933Z,99928.38
2023-05-03T12:13:06.437Z,99928.53
2023-05-03T12:15:37.535Z,99933.84
2023-05-03T12:18:09.885Z,99926.94
2023-05-03T12:23:10.978Z,99937.88
2023-05-03T12:25:40.499Z,99936.63
2023-05-03T12:30:45.547Z,99929.34
2023-05-03T12:33:17.283Z,99926.09
2023-05-03T12:35:47.690Z,99923.78
2023-05-03T12:38:17.450Z,99927.03
2023-05-03T12:40:47.180Z,99922.41
2023-05-03T12:43:15.069Z,99924.25
2023-05-03T12:45:46.878Z,99916.28
2023-05-03T12:48:18.971Z,99903.72
2023-05-03T12:50:49.117Z,99905.19
2023-05-03T12:53:19.366Z,99904.16
2023-05-03T12:55:51.402Z,99895.22
2023-05-03T13:03:43.123Z,99890.84
2023-05-03T13:06:14.441Z,99881.03
2023-05-03T13:11:13.363Z,99881.09
2023-05-03T13:13:40.990Z,99862.88
2023-05-03T13:16:08.933Z,99874.09
2023-05-03T13:18:38.780Z,99866.41
2023-05-03T13:21:08.011Z,99863.13
2023-05-03T13:23:35.576Z,99861.69
2023-05-03T13:26:03.145Z,99863.44
2023-05-03T13:28:30.756Z,99864.97
2023-05-03T13:30:58.363Z,99854.13
2023-05-03T13:33:25.957Z,99850.16
2023-05-03T13:35:54.867Z,99850.28
2023-05-03T13:38:22.509Z,99854.53
2023-05-03T13:40:50.075Z,99847.25
2023-05-03T13:43:17.691Z,99844.22
2023-05-03T13:45:45.276Z,99848.72
2023-05-03T13:48:17.659Z,99835.78
2023-05-03T13:50:46.502Z,99833.03
2023-05-03T13:53:15.450Z,99845.81
2023-05-03T13:55:42.979Z,99831.03
2023-05-03T13:58:10.622Z,99839.00
2023-05-03T14:00:38.421Z,99824.84
2023-05-03T14:03:07.194Z,99820.94
2023-05-03T14:05:34.906Z,99816.34
2023-05-03T14:08:02.548Z,99818.38
2023-05-03T14:10:35.514Z,99811.13
2023-05-03T14:13:03.692Z,99812.66
2023-05-03T14:15:31.616Z,99799.78
2023-05-03T14:18:02.201Z,99793.88
2023-05-03T14:20:32.321Z,99784.59
2023-05-03T14:23:00.002Z,99795.28
2023-05-03T14:25:27.918Z,99784.44
2023-05-03T14:27:56.976Z,99784.34
2023-05-03T14:30:24.614Z,99785.28
2023-05-03T14:32:52.480Z,99789.13
2023-05-03T14:35:20.386Z,99785.81
2023-05-03T14:37:48.542Z,99776.34
2023-05-03T14:40:17.605Z,99767.31
2023-05-03T14:42:45.274Z,99776.56
2023-05-03T14:45:14.856Z,99769.91
2023-05-03T14:47:42.541Z,99772.94
2023-05-03T14:50:10.830Z,99761.28
2023-05-03T14:52:38.696Z,99767.56
2023-05-03T14:55:07.722Z,99761.03
2023-05-03T14:57:36.276Z,99760.63
2023-05-03T15:00:05.874Z,99749.22
2023-05-03T15:02:35.186Z,99763.53
2023-05-03T15:05:03.855Z,99755.19
2023-05-03T15:07:32.252Z,99749.69
2023-05-03T15:10:01.202Z,99753.13
2023-05-03T15:12:29.259Z,99751.78
2023-05-03T15:14:56.893Z,99743.81
2023-05-03T15:17:24.716Z,99747.09
2023-05-03T15:19:53.707Z,99750.81
2023-05-03T15:22:21.266Z,99754.94
2023-05-03T15:24:48.899Z,99737.22
2023-05-03T15:27:16.427Z,99750.75
2023-05-03T15:29:43.962Z,99748.44
2023-05-03T15:32:11.530Z,99747.84
2023-05-03T15:34:39.546Z,99735.25
2023-05-03T15:37:12.032Z,99741.00
2023-05-03T15:39:40.044Z,99733.66
2023-05-03T15:42:07.881Z,99734.63
2023-05-03T15:44:35.530Z,99737.28
2023-05-03T15:47:03.097Z,99728.75
2023-05-03T15:49:30.944Z,99726.94
2023-05-03T15:51:58.820Z,99718.91
2023-05-03T15:54:29.796Z,99719.66
2023-05-03T15:56:57.757Z,99719.03
2023-05-03T15:59:25.950Z,99722.16
2023-05-03T16:01:54.730Z,99719.38
2023-05-03T16:04:22.828Z,99711.66
2023-05-03T16:06:50.945Z,99718.44
2023-05-03T16:09:18.958Z,99712.91
2023-05-03T16:11:48.886Z,99715.13
2023-05-03T16:14:16.674Z,99713.19
2023-05-03T16:16:46.432Z,99703.16
2023-05-03T16:19:15.278Z,99714.78
2023-05-03T16:21:43.038Z,99701.88
2023-05-03T16:24:11.366Z,99713.28
2023-05-03T16:26:38.961Z,99708.72
2023-05-03T16:29:07.976Z,99709.41
2023-05-03T16:31:35.643Z,99710.16
2023-05-03T16:34:03.630Z,99698.84
2023-05-03T16:36:33.332Z,99699.56
2023-05-03T16:39:01.113Z,99702.47
2023-05-03T16:41:28.870Z,99694.84
2023-05-03T16:43:56.977Z,99696.47
2023-05-03T16:46:26.400Z,99701.16
2023-05-03T16:48:55.123Z,99701.81
2023-05-03T16:51:22.853Z,99698.47
2023-05-03T16:53:50.468Z,99696.44
2023-05-03T16:56:18.204Z,99688.81
2023-05-03T16:58:45.896Z,99690.16
2023-05-03T17:01:14.389Z,99687.03
2023-05-03T17:03:43.412Z,99687.16
2023-05-03T17:06:11.230Z,99691.34
2023-05-03T17:08:38.804Z,99685.78
2023-05-03T17:11:10.926Z,99683.22
2023-05-03T17:13:38.546Z,99683.88
2023-05-03T17:16:08.580Z,99694.19
2023-05-03T17:18:36.794Z,99682.47
2023-05-03T17:21:06.065Z,99685.91
2023-05-03T17:23:35.784Z,99688.84
2023-05-03T17:26:04.166Z,99692.72
2023-05-03T17:28:32.570Z,99689.00
2023-05-03T17:31:00.999Z,99683.06
2023-05-03T17:33:28.545Z,99692.41
2023-05-03T17:35:56.905Z,99689.09
2023-05-03T17:38:25.954Z,99687.00
2023-05-03T17:40:53.570Z,99683.88
2023-05-03T17:43:21.391Z,99689.78
2023-05-03T17:45:49.016Z,99676.53
2023-05-03T17:48:16.705Z,99683.50
2023-05-03T17:50:46.132Z,99683.78
2023-05-03T17:53:13.696Z,99681.81
2023-05-03T17:55:42.606Z,99669.47
2023-05-03T17:58:10.777Z,99674.41
2023-05-03T18:00:38.659Z,99683.31
2023-05-03T18:03:07.980Z,99680.53
2023-05-03T18:05:37.154Z,99679.19
2023-05-03T18:08:04.908Z,99678.50
2023-05-03T18:10:32.577Z,99684.41
2023-05-03T18:13:01.535Z,99685.94
2023-05-03T18:15:29.257Z,99683.53
2023-05-03T18:17:57.603Z,99689.41
2023-05-03T18:20:25.265Z,99690.00
2023-05-03T18:22:52.944Z,99696.69
2023-05-03T18:25:20.748Z,99697.63
2023-05-03T18:27:48.678Z,99704.81
2023-05-03T18:30:18.094Z,99696.16
2023-05-03T18:32:45.871Z,99703.28
2023-05-03T18:35:13.560Z,99700.53
2023-05-03T18:37:41.283Z,99704.41
2023-05-03T18:40:10.152Z,99696.50
2023-05-03T18:42:38.032Z,99695.81
2023-05-03T18:45:06.155Z,99691.44
2023-05-03T18:47:35.144Z,99699.03
2023-05-03T18:50:04.207Z,99694.22
2023-05-03T18:52:31.945Z,99695.41
2023-05-03T18:54:59.507Z,99692.69
2023-05-03T18:57:27.244Z,99696.31
2023-05-03T19:00:00.692Z,99698.50
2023-05-03T19:02:31.150Z,99699.38
2023-05-03T19:05:00.899Z,99700.38
2023-05-03T19:07:28.809Z,99700.78
2023-05-03T19:09:57.132Z,99698.19
2023-05-03T19:12:25.347Z,99704.34
2023-05-03T19:14:52.996Z,99705.22
2023-05-03T19:17:20.659Z,99712.31
2023-05-03T19:19:48.297Z,99716.84
2023-05-03T19:22:17.195Z,99697.25
2023-05-03T19:24:44.795Z,99713.47
2023-05-03T19:27:12.760Z,99707.22
2023-05-03T19:29:40.439Z,99713.31
2023-05-03T19:32:08.147Z,99711.22
2023-05-03T19:34:36.364Z,99706.84
2023-05-03T19:37:04.962Z,99702.66
2023-05-03T19:39:35.746Z,99703.13
2023-05-03T19:42:03.884Z,99711.44
2023-05-03T19:44:31.580Z,99706.53
2023-05-03T19:46:59.100Z,99710.19
2023-05-03T19:49:27.619Z,99711.44
2023-05-03T19:51:55.888Z,99709.38
2023-05-03T19:54:24.011Z,99711.31
2023-05-03T19:56:53.540Z,99708.41
2023-05-03T19:59:21.199Z,99707.91
2023-05-03T20:01:48.910Z,99710.91
2023-05-03T20:04:16.659Z,99710.91
2023-05-03T20:06:44.461Z,99714.06
2023-05-03T20:09:12.813Z,99713.50
2023-05-03T20:11:41.707Z,99716.72
2023-05-03T20:14:10.676Z,99715.78
2023-05-03T20:16:39.900Z,99707.63
2023-05-03T20:19:07.577Z,99703.41
2023-05-03T20:21:35.146Z,99709.41
2023-05-03T20:24:04.610Z,99706.50
2023-05-03T20:26:32.223Z,99705.47
2023-05-03T20:28:59.764Z,99707.81
2023-05-03T20:31:28.852Z,99714.56
2023-05-03T20:33:56.646Z,99699.69
2023-05-03T20:36:24.554Z,99704.75
2023-05-03T20:38:52.735Z,99709.78
2023-05-03T20:41:20.440Z,99711.19
2023-05-03T20:43:47.997Z,99704.25
2023-05-03T20:46:15.854Z,99704.44
2023-05-03T20:48:45.143Z,99702.66
2023-05-03T20:51:12.850Z,99712.72
2023-05-03T20:53:40.484Z,99703.25
2023-05-03T20:56:08.304Z,99708.09
2023-05-03T20:58:36.316Z,99698.69
2023-05-03T21:01:05.368Z,99706.78
2023-05-03T21:03:33.194Z,99702.22
2023-05-03T21:06:02.151Z,99704.59
2023-05-03T21:08:29.748Z,99705.78
2023-05-03T21:10:57.325Z,99705.56
2023-05-03T21:13:25.060Z,99705.34
2023-05-03T21:15:52.889Z,99699.34
2023-05-03T21:18:21.000Z,99697.50
2023-05-03T21:20:49.100Z,99702.78
2023-05-03T21:23:18.362Z,99702.06
2023-05-03T21:25:46.286Z,99702.00
2023-05-03T21:28:14.019Z,99694.91
2023-05-03T21:30:42.242Z,99694.00
2023-05-03T21:33:09.983Z,99692.47
2023-05-03T21:35:37.588Z,99695.56
2023-05-03T21:38:05.167Z,99692.47
2023-05-03T21:40:34.325Z,99695.34
2023-05-03T21:43:02.317Z,99687.25
2023-05-03T21:45:30.071Z,99688.97
2023-05-03T21:47:57.892Z,99691.47
2023-05-03T21:50:26.109Z,99681.03
2023-05-03T21:52:54.133Z,99685.59
2023-05-03T21:55:22.014Z,99679.19
2023-05-03T21:57:51.383Z,99683.56
2023-05-03T22:00:20.426Z,99668.75
2023-05-03T22:02:48.255Z,99686.25
2023-05-03T22:05:16.127Z,99683.25
2023-05-03T22:07:44.689Z,99673.19
2023-05-03T22:10:12.497Z,99677.72
2023-05-03T22:12:40.287Z,99669.06
2023-05-03T22:15:11.172Z,99676.13
2023-05-03T22:17:39.278Z,99681.16
2023-05-03T22:20:08.500Z,99678.75
2023-05-03T22:22:36.417Z,99668.59
2023-05-03T22:25:04.391Z,99665.00
2023-05-03T22:27:32.109Z,99664.06
2023-05-03T22:29:59.791Z,99666.09
2023-05-03T22:32:28.908Z,99666.81
2023-05-03T22:34:56.569Z,99664.31
2023-05-03T22:37:24.134Z,99665.84
2023-05-03T22:39:51.723Z,99665.09
2023-05-03T22:42:19.277Z,99661.78
2023-05-03T22:44:47.106Z,99668.97
2023-05-03T22:47:15.652Z,99662.75
2023-05-03T22:49:44.903Z,99663.50
2023-05-03T22:52:12.457Z,99665.69
2023-05-03T22:54:40.421Z,99661.34
2023-05-03T22:57:08.095Z,99664.25
2023-05-03T22:59:35.826Z,99663.47
2023-05-03T23:02:03.919Z,99666.09
2023-05-03T23:04:31.897Z,99656.13
2023-05-03T23:07:01.371Z,99663.56
2023-05-03T23:09:29.211Z,99658.25
2023-05-03T23:11:57.300Z,99663.63
2023-05-03T23:14:24.886Z,99665.34
2023-05-03T23:16:52.576Z,99662.78
2023-05-03T23:19:20.700Z,99664.72
2023-05-03T23:21:48.241Z,99653.47
2023-05-03T23:24:17.228Z,99656.28
2023-05-03T23:26:45.195Z,99654.91
2023-05-03T23:29:13.301Z,99648.25
2023-05-03T23:31:41.322Z,99651.63
2023-05-03T23:34:09.159Z,99645.44
2023-05-03T23:36:36.748Z,99649.38
2023-05-03T23:39:04.564Z,99651.22
2023-05-03T23:41:34.074Z,99649.50
2023-05-03T23:44:01.697Z,99648.81
2023-05-03T23:46:29.333Z,99652.03
2023-05-03T23:48:57.020Z,99642.88
2023-05-03T23:51:24.910Z,99639.59
2023-05-03T23:53:52.791Z,99633.13
2023-05-03T23:56:20.351Z,99633.88
2023-05-03T23:58:49.286Z,99626.56
